Time;durP1;ratioP1;P1;durP2;ratioP2;P2;SDS_P1;SDS_P2;PMS_P1;PMS_P2;Temp;Humidity;BMP_temperature;BMP_pressure;BME280_temperature;BME280_humidity;BME280_pressure;Samples;Min_cycle;Max_cycle;Signal;HPM_P1;HPM_P2
2024/01/05 00:01:07;;;;;;;5.20;4.55;;;8.30;99.90;;;;;;5097328;28;20040;-70
2024/01/05 00:03:33;;;;;;;3.90;3.60;;;8.40;99.90;;;;;;5092360;28;20024;-69
2024/01/05 00:05:58;;;;;;;3.88;3.67;;;8.40;99.90;;;;;;5092628;28;20487;-70
2024/01/05 00:08:24;;;;;;;4.43;4.10;;;8.30;99.90;;;;;;5092914;28;20028;-69
2024/01/05 00:10:49;;;;;;;3.35;3.25;;;8.40;99.90;;;;;;5092645;28;20024;-68
2024/01/05 00:13:15;;;;;;;4.72;4.43;;;8.40;99.90;;;;;;5107430;28;20044;-69
2024/01/05 00:15:40;;;;;;;4.03;3.78;;;8.40;99.90;;;;;;5111038;28;20465;-70
2024/01/05 00:18:06;;;;;;;7.63;4.65;;;8.40;99.90;;;;;;5112767;28;20464;-70
2024/01/05 00:20:32;;;;;;;4.78;4.45;;;8.40;99.90;;;;;;5112624;28;20493;-70
2024/01/05 00:22:57;;;;;;;4.70;3.50;;;8.40;99.90;;;;;;5112316;28;20028;-70
2024/01/05 00:25:23;;;;;;;4.22;3.92;;;8.40;99.90;;;;;;5112808;28;20027;-70
2024/01/05 00:27:52;;;;;;;4.18;3.78;;;8.40;99.90;;;;;;5112044;28;20016;-69
2024/01/05 00:30:18;;;;;;;9.20;5.70;;;8.40;99.90;;;;;;5083393;28;20038;-69
2024/01/05 00:32:45;;;;;;;4.45;3.97;;;8.40;99.90;;;;;;5110665;28;20035;-69
2024/01/05 00:35:10;;;;;;;4.93;3.28;;;8.40;99.90;;;;;;5101618;28;20077;-69
2024/01/05 00:37:36;;;;;;;4.35;3.95;;;8.50;99.90;;;;;;5111537;28;20123;-70
2024/01/05 00:40:03;;;;;;;7.90;3.70;;;8.50;99.90;;;;;;5112124;28;20735;-69
2024/01/05 00:42:28;;;;;;;5.93;5.32;;;8.50;99.90;;;;;;5112036;28;20392;-69
2024/01/05 00:44:54;;;;;;;3.22;3.03;;;8.60;99.90;;;;;;5112195;28;20024;-69
2024/01/05 00:47:19;;;;;;;3.63;3.03;;;8.60;99.90;;;;;;5092196;28;20035;-69
2024/01/05 00:49:45;;;;;;;4.82;3.50;;;8.60;99.90;;;;;;5091352;28;20024;-69
2024/01/05 00:52:12;;;;;;;2.70;2.45;;;8.60;99.90;;;;;;5103694;28;20039;-69
2024/01/05 00:54:38;;;;;;;3.38;3.10;;;8.60;99.90;;;;;;5092269;28;20118;-69
2024/01/05 00:57:04;;;;;;;2.42;2.33;;;8.70;99.90;;;;;;5107105;28;20164;-70
2024/01/05 00:59:29;;;;;;;3.53;3.22;;;8.70;99.90;;;;;;5112564;28;20028;-70
2024/01/05 01:01:55;;;;;;;2.97;2.80;;;8.70;99.90;;;;;;5108744;28;20024;-69
2024/01/05 01:04:20;;;;;;;2.58;2.38;;;8.80;99.90;;;;;;5111925;28;20118;-69
2024/01/05 01:06:46;;;;;;;2.63;2.53;;;8.80;99.90;;;;;;5111807;28;20024;-69
2024/01/05 01:09:12;;;;;;;3.38;3.17;;;8.80;99.90;;;;;;5112102;28;20047;-70
2024/01/05 01:11:37;;;;;;;3.00;2.90;;;8.80;99.90;;;;;;5112075;28;20385;-70
2024/01/05 01:14:03;;;;;;;2.33;2.22;;;8.80;99.90;;;;;;5112372;28;20115;-69
2024/01/05 01:16:28;;;;;;;5.85;4.15;;;8.80;99.90;;;;;;5115084;28;20461;-71
2024/01/05 01:18:54;;;;;;;3.80;3.50;;;8.80;99.90;;;;;;5104094;28;20480;-69
2024/01/05 01:21:19;;;;;;;3.47;2.90;;;8.90;99.90;;;;;;5095828;28;20078;-70
2024/01/05 01:23:45;;;;;;;4.13;2.80;;;8.90;99.90;;;;;;5103026;28;20028;-70
2024/01/05 01:26:10;;;;;;;2.75;2.35;;;8.90;99.90;;;;;;5116244;28;20027;-70
2024/01/05 01:28:36;;;;;;;3.58;3.38;;;8.90;99.90;;;;;;5115935;28;20030;-70
2024/01/05 01:31:02;;;;;;;2.40;2.30;;;8.90;99.90;;;;;;5114741;28;20066;-70
2024/01/05 01:33:27;;;;;;;3.05;2.80;;;9.00;99.90;;;;;;5098570;28;20039;-70
2024/01/05 01:35:53;;;;;;;2.97;2.83;;;9.00;99.90;;;;;;5100225;28;20107;-70
2024/01/05 01:38:18;;;;;;;2.42;2.33;;;9.00;99.90;;;;;;5095645;28;20106;-70
2024/01/05 01:40:47;;;;;;;3.30;3.10;;;9.10;99.90;;;;;;5104245;28;20059;-69
2024/01/05 01:43:24;;;;;;;3.10;2.75;;;9.10;99.90;;;;;;5115430;28;20020;-69
2024/01/05 01:45:51;;;;;;;2.78;2.58;;;9.10;99.90;;;;;;5115597;28;20024;-70
2024/01/05 01:48:18;;;;;;;6.50;4.22;;;9.10;99.90;;;;;;5115001;28;20023;-70
2024/01/05 01:50:45;;;;;;;3.60;3.40;;;9.10;99.90;;;;;;5115272;28;20026;-70
2024/01/05 01:53:13;;;;;;;2.58;2.47;;;9.10;99.90;;;;;;5114033;28;20044;-70
2024/01/05 01:55:41;;;;;;;2.97;2.78;;;9.10;99.90;;;;;;5114503;28;20079;-70
2024/01/05 01:58:07;;;;;;;2.75;2.58;;;9.10;99.90;;;;;;5115685;28;20019;-69
2024/01/05 02:00:33;;;;;;;3.15;2.95;;;9.10;99.90;;;;;;5115659;28;20115;-69
2024/01/05 02:03:01;;;;;;;3.13;2.92;;;9.10;99.90;;;;;;5110957;28;20031;-69
2024/01/05 02:05:28;;;;;;;5.28;3.13;;;9.10;99.90;;;;;;5115025;28;20385;-70
2024/01/05 02:07:54;;;;;;;6.63;4.13;;;9.10;99.90;;;;;;5115052;28;20019;-69
2024/01/05 02:10:20;;;;;;;2.80;2.60;;;9.10;99.90;;;;;;5114955;28;20032;-69
2024/01/05 02:12:45;;;;;;;4.63;3.15;;;9.10;99.90;;;;;;5115073;28;20035;-70
2024/01/05 02:15:11;;;;;;;2.55;2.45;;;9.20;99.90;;;;;;5115038;28;20039;-70
2024/01/05 02:17:36;;;;;;;2.20;2.20;;;9.10;99.90;;;;;;5111487;28;20038;-70
2024/01/05 02:20:02;;;;;;;3.53;3.28;;;9.10;99.90;;;;;;5105898;28;20047;-70
2024/01/05 02:22:29;;;;;;;8.27;3.17;;;9.10;99.90;;;;;;5112978;28;20097;-69
2024/01/05 02:24:57;;;;;;;3.88;3.67;;;9.10;99.90;;;;;;5114891;28;20027;-69
2024/01/05 02:27:23;;;;;;;3.13;2.92;;;9.10;99.90;;;;;;5113433;28;20059;-69
2024/01/05 02:29:49;;;;;;;2.95;2.78;;;9.10;99.90;;;;;;5095856;28;20441;-70
2024/01/05 02:32:16;;;;;;;3.00;2.80;;;9.10;99.90;;;;;;5113687;28;20149;-69
2024/01/05 02:34:42;;;;;;;2.50;2.40;;;9.10;99.90;;;;;;5114330;28;20069;-70
2024/01/05 02:37:07;;;;;;;3.22;3.03;;;9.20;99.90;;;;;;5110999;28;20024;-69
2024/01/05 02:39:33;;;;;;;5.28;2.72;;;9.20;99.90;;;;;;5114251;28;20160;-70
2024/01/05 02:41:58;;;;;;;3.92;3.63;;;9.20;99.90;;;;;;5113711;28;20040;-70
2024/01/05 02:44:24;;;;;;;2.33;2.33;;;9.20;99.90;;;;;;5113959;28;20028;-70
2024/01/05 02:46:50;;;;;;;2.50;2.40;;;9.20;99.90;;;;;;5113358;28;20036;-69
2024/01/05 02:49:16;;;;;;;2.67;2.47;;;9.20;99.90;;;;;;5113944;28;20027;-69
2024/01/05 02:51:41;;;;;;;2.40;2.30;;;9.30;99.90;;;;;;5114186;28;20020;-70
2024/01/05 02:54:07;;;;;;;2.70;2.60;;;9.30;99.90;;;;;;5112240;28;20034;-69
2024/01/05 02:56:33;;;;;;;4.10;3.80;;;9.30;99.90;;;;;;5113397;28;20076;-70
2024/01/05 02:59:00;;;;;;;3.65;2.65;;;9.30;99.90;;;;;;5113562;28;20102;-70
2024/01/05 03:01:25;;;;;;;3.33;3.22;;;9.30;99.90;;;;;;5113449;28;20063;-70
2024/01/05 03:03:51;;;;;;;3.38;3.08;;;9.30;99.90;;;;;;5107059;28;20074;-70
2024/01/05 03:06:18;;;;;;;2.50;2.40;;;9.40;99.90;;;;;;5113637;28;20510;-70
2024/01/05 03:08:44;;;;;;;2.97;2.88;;;9.40;99.90;;;;;;5111697;28;20039;-70
2024/01/05 03:11:10;;;;;;;3.05;2.85;;;9.40;99.90;;;;;;5113387;28;20456;-70
2024/01/05 03:13:36;;;;;;;4.95;3.22;;;9.40;99.90;;;;;;5113314;28;20103;-70
2024/01/05 03:16:02;;;;;;;5.57;3.60;;;9.40;99.90;;;;;;5112097;28;20488;-71
2024/01/05 03:18:27;;;;;;;3.33;3.10;;;9.40;99.90;;;;;;5113416;28;20024;-71
2024/01/05 03:20:53;;;;;;;2.58;2.47;;;9.40;99.90;;;;;;5108618;28;20023;-71
2024/01/05 03:23:19;;;;;;;3.08;2.97;;;9.40;99.90;;;;;;5113623;28;20038;-71
2024/01/05 03:25:45;;;;;;;3.15;2.95;;;9.40;99.90;;;;;;5113527;28;20099;-71
2024/01/05 03:28:11;;;;;;;2.90;2.80;;;9.40;99.90;;;;;;5113117;28;20458;-71
2024/01/05 03:30:41;;;;;;;3.40;3.10;;;9.40;99.90;;;;;;5113354;28;20022;-71
2024/01/05 03:33:06;;;;;;;2.83;2.63;;;9.40;99.90;;;;;;5112105;28;20035;-71
2024/01/05 03:35:32;;;;;;;2.50;2.40;;;9.40;99.90;;;;;;5112931;28;20119;-71
2024/01/05 03:37:58;;;;;;;2.75;2.65;;;9.40;99.90;;;;;;5107831;28;20064;-71
2024/01/05 03:40:23;;;;;;;2.78;2.67;;;9.30;99.90;;;;;;5112971;28;20049;-71
2024/01/05 03:42:49;;;;;;;2.92;2.70;;;9.30;99.90;;;;;;5113001;28;20062;-71
2024/01/05 03:45:14;;;;;;;2.92;2.80;;;9.30;99.90;;;;;;5113042;28;20024;-71
2024/01/05 03:47:40;;;;;;;4.10;3.78;;;9.30;99.90;;;;;;5104107;28;20058;-71
2024/01/05 03:50:06;;;;;;;2.60;2.50;;;9.30;99.90;;;;;;5110108;28;20027;-71
2024/01/05 03:52:32;;;;;;;2.97;2.88;;;9.30;99.90;;;;;;5112709;28;20496;-71
2024/01/05 03:54:58;;;;;;;3.00;2.90;;;9.30;99.90;;;;;;5108128;28;20024;-71
2024/01/05 03:57:24;;;;;;;3.20;3.10;;;9.30;99.90;;;;;;5112454;28;20024;-71
2024/01/05 03:59:50;;;;;;;3.20;3.10;;;9.30;99.90;;;;;;5112540;28;20031;-70
2024/01/05 04:02:16;;;;;;;3.20;3.10;;;9.30;99.90;;;;;;5112746;28;20480;-70
2024/01/05 04:04:42;;;;;;;3.70;3.50;;;9.30;99.90;;;;;;5109062;28;20164;-70
2024/01/05 04:07:07;;;;;;;7.40;3.63;;;9.30;99.90;;;;;;5112594;28;20107;-70
2024/01/05 04:09:33;;;;;;;4.40;4.20;;;9.30;99.90;;;;;;5111723;28;20043;-70
2024/01/05 04:11:59;;;;;;;4.00;3.88;;;9.30;99.90;;;;;;5108321;28;20578;-71
2024/01/05 04:14:24;;;;;;;4.00;3.80;;;9.30;99.90;;;;;;5108877;28;20102;-71
2024/01/05 04:16:50;;;;;;;3.00;2.90;;;9.30;99.90;;;;;;5112533;28;20031;-70
2024/01/05 04:19:16;;;;;;;3.00;2.90;;;9.30;99.90;;;;;;5112306;28;20110;-71
2024/01/05 04:21:42;;;;;;;3.95;3.78;;;9.30;99.90;;;;;;5110592;28;20347;-70
2024/01/05 04:24:08;;;;;;;3.85;3.65;;;9.30;99.90;;;;;;5112599;28;20048;-70
2024/01/05 04:26:34;;;;;;;3.80;3.67;;;9.30;99.90;;;;;;5112085;28;20524;-70
2024/01/05 04:29:01;;;;;;;4.60;4.40;;;9.30;99.90;;;;;;5094177;28;20095;-70
2024/01/05 04:31:27;;;;;;;4.93;4.53;;;9.30;99.90;;;;;;5112078;28;20038;-70
2024/01/05 04:33:54;;;;;;;11.45;4.25;;;9.30;99.90;;;;;;5112158;28;20469;-70
2024/01/05 04:36:19;;;;;;;4.55;4.35;;;9.30;99.90;;;;;;5111188;28;20111;-70
2024/01/05 04:38:45;;;;;;;4.90;4.70;;;9.30;99.90;;;;;;5108647;28;20038;-69
2024/01/05 04:41:13;;;;;;;4.90;4.70;;;9.20;99.90;;;;;;5112377;28;20034;-70
2024/01/05 04:43:39;;;;;;;5.88;5.40;;;9.30;99.90;;;;;;5109300;28;20031;-69
2024/01/05 04:46:06;;;;;;;5.47;5.22;;;9.30;99.90;;;;;;5112464;28;20030;-70
2024/01/05 04:48:31;;;;;;;4.63;4.43;;;9.30;99.90;;;;;;5112196;28;20020;-69
2024/01/05 04:50:57;;;;;;;4.55;4.35;;;9.30;99.90;;;;;;5113973;28;20023;-70
2024/01/05 04:53:22;;;;;;;5.35;5.05;;;9.30;99.90;;;;;;5115962;28;20028;-70
2024/01/05 04:55:48;;;;;;;5.13;4.93;;;9.30;99.90;;;;;;5107617;28;20385;-70
2024/01/05 04:58:13;;;;;;;4.70;4.50;;;9.30;99.90;;;;;;5098466;28;20028;-70
2024/01/05 05:00:39;;;;;;;5.28;4.78;;;9.20;99.90;;;;;;5116359;28;20441;-70
2024/01/05 05:03:05;;;;;;;4.00;3.90;;;9.20;99.90;;;;;;5111442;28;20028;-70
2024/01/05 05:05:30;;;;;;;4.65;4.45;;;9.10;99.90;;;;;;5115038;28;20047;-70
2024/01/05 05:07:57;;;;;;;4.35;4.13;;;9.20;99.90;;;;;;5116841;28;20489;-70
2024/01/05 05:10:23;;;;;;;4.00;3.90;;;9.20;99.90;;;;;;5116803;28;20125;-70
2024/01/05 05:12:49;;;;;;;4.15;3.97;;;9.20;99.90;;;;;;5116263;28;20069;-70
2024/01/05 05:15:14;;;;;;;3.88;3.78;;;9.20;99.90;;;;;;5116691;28;20024;-69
2024/01/05 05:17:40;;;;;;;4.05;3.75;;;9.20;99.90;;;;;;5114970;28;20084;-70
2024/01/05 05:20:06;;;;;;;10.30;4.05;;;9.20;99.90;;;;;;5116105;28;20546;-70
2024/01/05 05:22:33;;;;;;;4.07;3.67;;;9.10;99.90;;;;;;5097284;28;20040;-70
2024/01/05 05:24:58;;;;;;;3.38;3.28;;;9.10;99.90;;;;;;5116322;28;20477;-69
2024/01/05 05:27:24;;;;;;;3.72;3.63;;;9.10;99.90;;;;;;5116537;28;20031;-70
2024/01/05 05:29:49;;;;;;;4.40;4.10;;;9.10;99.90;;;;;;5115934;28;20023;-71
2024/01/05 05:32:15;;;;;;;3.22;3.13;;;9.10;99.90;;;;;;5116170;28;20372;-70
2024/01/05 05:34:41;;;;;;;3.25;3.15;;;9.10;99.90;;;;;;5115944;28;20421;-70
2024/01/05 05:37:07;;;;;;;3.92;3.78;;;9.00;99.90;;;;;;5116289;28;20119;-70
2024/01/05 05:39:32;;;;;;;3.40;3.30;;;8.90;99.90;;;;;;5114661;28;20161;-70
2024/01/05 05:41:58;;;;;;;3.60;3.50;;;8.90;99.90;;;;;;5097833;28;20461;-70
2024/01/05 05:44:23;;;;;;;3.45;3.30;;;8.90;99.90;;;;;;5103600;28;20408;-69
2024/01/05 05:46:49;;;;;;;3.47;3.38;;;8.90;99.90;;;;;;5095695;28;20067;-71
2024/01/05 05:49:14;;;;;;;3.50;3.40;;;8.90;99.90;;;;;;5095893;28;20048;-70
2024/01/05 05:51:40;;;;;;;3.80;3.70;;;8.90;99.90;;;;;;5095692;28;20043;-70
2024/01/05 05:54:06;;;;;;;3.50;3.40;;;8.90;99.90;;;;;;5095375;28;20472;-70
2024/01/05 05:56:31;;;;;;;3.40;3.30;;;8.90;99.90;;;;;;5096967;28;20112;-70
2024/01/05 05:58:57;;;;;;;4.15;3.95;;;8.90;99.90;;;;;;5115866;28;20032;-70
2024/01/05 06:01:23;;;;;;;3.78;3.63;;;8.90;99.90;;;;;;5114356;28;20035;-70
2024/01/05 06:03:49;;;;;;;4.45;4.15;;;8.90;99.90;;;;;;5115647;28;20109;-70
2024/01/05 06:06:17;;;;;;;4.20;3.70;;;8.80;99.90;;;;;;5106951;28;20036;-70
2024/01/05 06:08:43;;;;;;;4.20;4.10;;;8.60;99.90;;;;;;5095284;28;20043;-70
2024/01/05 06:11:08;;;;;;;5.20;4.90;;;8.50;99.90;;;;;;5095216;28;20024;-70
2024/01/05 06:13:34;;;;;;;5.30;5.10;;;8.20;99.90;;;;;;5095173;28;20043;-69
2024/01/05 06:15:59;;;;;;;5.00;4.80;;;8.10;99.90;;;;;;5095099;28;20424;-70
2024/01/05 06:18:26;;;;;;;4.82;4.60;;;8.00;99.90;;;;;;5094837;28;20028;-69
2024/01/05 06:20:51;;;;;;;4.10;4.00;;;8.00;99.90;;;;;;5107668;28;20049;-70
2024/01/05 06:23:17;;;;;;;4.45;4.28;;;7.90;99.90;;;;;;5112997;28;20401;-70
2024/01/05 06:25:42;;;;;;;3.80;3.70;;;7.90;99.90;;;;;;5115505;28;20042;-70
2024/01/05 06:28:08;;;;;;;4.20;4.00;;;7.80;99.90;;;;;;5096666;28;20034;-69
2024/01/05 06:30:33;;;;;;;3.28;3.17;;;7.80;99.90;;;;;;5095016;28;20085;-70
2024/01/05 06:32:59;;;;;;;3.20;3.10;;;7.80;99.90;;;;;;5094982;28;20395;-70
2024/01/05 06:35:24;;;;;;;3.10;3.00;;;7.80;99.90;;;;;;5094865;28;20032;-69
2024/01/05 06:37:50;;;;;;;2.90;2.80;;;7.80;99.90;;;;;;5094723;28;20031;-70
2024/01/05 06:40:15;;;;;;;2.80;2.70;;;7.80;99.90;;;;;;5112996;28;20024;-70
2024/01/05 06:42:41;;;;;;;2.30;2.30;;;7.80;99.90;;;;;;5115045;28;20024;-71
2024/01/05 06:45:07;;;;;;;2.60;2.50;;;7.80;99.90;;;;;;5114803;28;20043;-70
2024/01/05 06:47:32;;;;;;;2.60;2.50;;;7.80;99.90;;;;;;5114901;28;20035;-70
2024/01/05 06:49:58;;;;;;;2.60;2.50;;;7.80;99.90;;;;;;5109591;28;20038;-70
2024/01/05 06:52:23;;;;;;;2.90;2.80;;;7.70;99.90;;;;;;5094118;28;20032;-69
2024/01/05 06:54:49;;;;;;;3.55;3.45;;;7.80;99.90;;;;;;5093592;28;20035;-70
2024/01/05 06:57:15;;;;;;;3.22;3.13;;;7.80;99.90;;;;;;5094269;28;20023;-71
2024/01/05 06:59:40;;;;;;;3.28;3.17;;;7.80;99.90;;;;;;5114446;28;20059;-70
2024/01/05 07:02:06;;;;;;;3.40;3.30;;;7.80;99.90;;;;;;5114834;28;20032;-70
2024/01/05 07:04:31;;;;;;;3.17;3.08;;;7.80;99.90;;;;;;5112805;28;20059;-69
2024/01/05 07:06:57;;;;;;;3.30;3.20;;;7.90;99.90;;;;;;5107839;28;20020;-71
2024/01/05 07:09:23;;;;;;;3.88;3.60;;;7.90;99.90;;;;;;5094153;28;20050;-70
2024/01/05 07:11:48;;;;;;;2.90;2.80;;;7.90;99.90;;;;;;5094103;28;20028;-70
2024/01/05 07:14:14;;;;;;;3.00;2.90;;;7.90;99.90;;;;;;5105121;28;20077;-69
2024/01/05 07:16:39;;;;;;;2.90;2.80;;;7.90;99.90;;;;;;5112124;28;20035;-69
2024/01/05 07:19:06;;;;;;;3.30;3.20;;;7.90;99.90;;;;;;5093619;28;20062;-70
2024/01/05 07:21:34;;;;;;;3.20;3.10;;;8.00;99.90;;;;;;5106566;28;20073;-70
2024/01/05 07:23:59;;;;;;;3.47;3.28;;;8.00;99.90;;;;;;5113636;28;20032;-69
2024/01/05 07:26:25;;;;;;;3.35;3.25;;;8.10;99.90;;;;;;5112378;28;20076;-70
2024/01/05 07:28:50;;;;;;;3.20;3.10;;;8.10;99.90;;;;;;5113659;28;20024;-70
2024/01/05 07:31:22;;;;;;;2.80;2.70;;;8.10;99.90;;;;;;5114120;28;20032;-70
2024/01/05 07:33:48;;;;;;;2.80;2.70;;;8.00;99.90;;;;;;5113706;28;20071;-70
2024/01/05 07:36:13;;;;;;;2.90;2.80;;;7.90;99.90;;;;;;5113850;28;20437;-70
2024/01/05 07:38:39;;;;;;;2.95;2.85;;;7.90;99.90;;;;;;5113932;28;20051;-69
2024/01/05 07:41:04;;;;;;;2.80;2.70;;;7.90;99.90;;;;;;5112432;28;20457;-70
2024/01/05 07:43:30;;;;;;;2.60;2.50;;;7.90;99.90;;;;;;5110962;28;20031;-70
2024/01/05 07:45:56;;;;;;;2.90;2.80;;;7.90;99.90;;;;;;5109667;28;20031;-69
2024/01/05 07:48:22;;;;;;;2.78;2.67;;;7.80;99.90;;;;;;5112972;28;20381;-70
2024/01/05 07:50:48;;;;;;;2.60;2.50;;;7.80;99.90;;;;;;5112030;28;20027;-70
2024/01/05 07:53:14;;;;;;;2.50;2.40;;;7.70;99.90;;;;;;5112570;28;20058;-69
2024/01/05 07:55:47;;;;;;;2.20;2.20;;;7.80;99.90;;;;;;5112348;28;20062;-70
2024/01/05 07:58:13;;;;;;;2.40;2.30;;;7.80;99.90;;;;;;5108577;28;20035;-70
2024/01/05 08:00:39;;;;;;;2.40;2.30;;;7.80;99.90;;;;;;5113122;28;20431;-70
2024/01/05 08:03:08;;;;;;;2.40;2.30;;;7.80;99.90;;;;;;5094879;28;20416;-70
2024/01/05 08:05:33;;;;;;;2.90;2.70;;;7.80;99.90;;;;;;5110447;28;20054;-71
2024/01/05 08:07:59;;;;;;;2.30;2.10;;;7.80;99.90;;;;;;5087262;28;20386;-70
2024/01/05 08:10:25;;;;;;;2.65;2.55;;;7.80;99.90;;;;;;5109498;28;20035;-70
2024/01/05 08:12:50;;;;;;;2.30;2.30;;;7.80;99.90;;;;;;5110128;28;20039;-70
2024/01/05 08:15:16;;;;;;;2.15;2.15;;;7.90;99.90;;;;;;5092678;28;20034;-69
2024/01/05 08:17:41;;;;;;;4.18;3.83;;;7.90;99.90;;;;;;5110872;28;20028;-70
2024/01/05 08:20:07;;;;;;;7.15;5.75;;;7.90;99.90;;;;;;5108732;28;20605;-69
2024/01/05 08:22:34;;;;;;;9.40;6.05;;;8.00;99.90;;;;;;5095689;28;20031;-70
2024/01/05 08:24:59;;;;;;;10.60;7.03;;;8.00;99.90;;;;;;5111802;28;20059;-70
2024/01/05 08:27:25;;;;;;;11.35;6.90;;;8.00;99.90;;;;;;5110983;28;20511;-70
2024/01/05 08:29:50;;;;;;;9.10;7.68;;;8.00;99.90;;;;;;5110647;28;20046;-70
2024/01/05 08:32:16;;;;;;;9.98;7.60;;;7.90;99.90;;;;;;5112685;28;20047;-70
2024/01/05 08:34:42;;;;;;;11.75;8.00;;;7.90;99.90;;;;;;5111112;28;20023;-70
2024/01/05 08:37:07;;;;;;;8.57;7.25;;;7.90;99.90;;;;;;5111914;28;20456;-70
2024/01/05 08:39:33;;;;;;;12.00;7.72;;;7.90;99.90;;;;;;5106742;28;20118;-70
2024/01/05 08:41:58;;;;;;;10.10;6.38;;;7.90;99.90;;;;;;5110747;28;20104;-70
2024/01/05 08:44:24;;;;;;;8.13;6.63;;;7.90;99.90;;;;;;5108136;28;20031;-70
2024/01/05 08:46:49;;;;;;;7.97;6.13;;;7.80;99.90;;;;;;5110716;28;20034;-70
2024/01/05 08:49:15;;;;;;;7.68;5.20;;;7.80;99.90;;;;;;5110880;28;20117;-70
2024/01/05 08:51:44;;;;;;;12.73;5.55;;;7.80;99.90;;;;;;5103282;28;20046;-71
2024/01/05 08:54:10;;;;;;;7.70;5.05;;;7.90;99.90;;;;;;5104610;28;20089;-70
2024/01/05 08:56:37;;;;;;;7.25;5.43;;;7.80;99.90;;;;;;5107357;28;20059;-70
2024/01/05 08:59:04;;;;;;;9.90;5.80;;;7.80;99.90;;;;;;5107792;28;20028;-70
2024/01/05 09:01:32;;;;;;;8.25;5.78;;;7.80;99.90;;;;;;5111344;28;20074;-70
2024/01/05 09:03:58;;;;;;;10.68;5.72;;;7.80;99.90;;;;;;5111762;28;20505;-70
2024/01/05 09:06:23;;;;;;;8.90;5.65;;;7.80;99.90;;;;;;5110036;28;20036;-70
2024/01/05 09:08:49;;;;;;;20.63;6.47;;;7.80;99.90;;;;;;5107583;28;20024;-71
2024/01/05 09:11:15;;;;;;;12.68;6.00;;;7.80;99.90;;;;;;5110804;28;20028;-70
2024/01/05 09:13:42;;;;;;;12.88;6.28;;;7.80;99.90;;;;;;5112053;28;20139;-70
2024/01/05 09:16:07;;;;;;;19.42;5.95;;;7.80;99.90;;;;;;5111834;28;20102;-70
2024/01/05 09:18:36;;;;;;;12.57;6.50;;;7.70;99.90;;;;;;5110257;28;20065;-70
2024/01/05 09:21:02;;;;;;;17.45;7.15;;;7.70;99.90;;;;;;5111287;28;20500;-70
2024/01/05 09:23:28;;;;;;;11.35;6.35;;;7.80;99.90;;;;;;5104595;28;20027;-70
2024/01/05 09:25:54;;;;;;;9.77;6.25;;;7.70;99.90;;;;;;5111598;28;20085;-70
2024/01/05 09:28:19;;;;;;;10.57;6.28;;;7.80;99.90;;;;;;5105163;28;20023;-70
2024/01/05 09:30:45;;;;;;;28.77;8.27;;;7.80;99.90;;;;;;5102748;28;20036;-70
2024/01/05 09:33:10;;;;;;;10.30;6.22;;;7.90;99.90;;;;;;5108205;28;20039;-71
2024/01/05 09:35:36;;;;;;;13.77;7.22;;;7.90;99.90;;;;;;5108928;28;20065;-70
2024/01/05 09:38:02;;;;;;;10.57;6.63;;;7.90;99.90;;;;;;5099859;28;20073;-70
2024/01/05 09:40:28;;;;;;;18.42;7.93;;;7.90;99.90;;;;;;5101576;28;20032;-70
2024/01/05 09:42:57;;;;;;;17.15;7.30;;;7.90;99.90;;;;;;5110473;28;20042;-70
2024/01/05 09:45:24;;;;;;;10.60;6.60;;;7.90;99.90;;;;;;5112772;28;20529;-70
2024/01/05 09:47:51;;;;;;;13.25;6.97;;;7.90;99.90;;;;;;5115111;28;20035;-70
2024/01/05 09:50:17;;;;;;;12.45;7.13;;;7.90;99.90;;;;;;5114697;28;20087;-70
2024/01/05 09:52:43;;;;;;;25.02;8.75;;;7.90;99.90;;;;;;5094127;28;20031;-70
2024/01/05 09:55:09;;;;;;;11.98;6.38;;;7.90;99.90;;;;;;5115333;28;20099;-70
2024/01/05 09:57:36;;;;;;;9.05;5.80;;;7.90;99.90;;;;;;5110508;28;20164;-70
2024/01/05 10:00:03;;;;;;;8.38;5.38;;;7.80;99.90;;;;;;5113804;28;20039;-70
2024/01/05 10:02:39;;;;;;;12.88;6.30;;;7.80;99.90;;;;;;5115822;28;20066;-70
2024/01/05 10:05:05;;;;;;;10.75;6.03;;;7.80;99.90;;;;;;5115104;28;20180;-70
2024/01/05 10:07:31;;;;;;;8.10;4.90;;;7.80;99.90;;;;;;5115117;28;20032;-70
2024/01/05 10:09:58;;;;;;;7.90;4.90;;;7.80;99.90;;;;;;5094202;28;20034;-70
2024/01/05 10:12:24;;;;;;;8.73;4.97;;;7.90;99.90;;;;;;5115309;28;20044;-70
2024/01/05 10:14:50;;;;;;;5.40;4.60;;;7.90;99.90;;;;;;5110880;28;20034;-70
2024/01/05 10:17:16;;;;;;;7.50;4.75;;;7.90;99.90;;;;;;5110608;28;20035;-70
2024/01/05 10:19:42;;;;;;;7.47;4.55;;;7.90;99.90;;;;;;5097394;28;20036;-70
2024/01/05 10:22:12;;;;;;;14.32;5.65;;;7.90;99.90;;;;;;5094185;28;20039;-70
2024/01/05 10:24:39;;;;;;;8.18;5.05;;;8.00;99.90;;;;;;5110984;28;20019;-70
2024/01/05 10:27:05;;;;;;;6.50;4.63;;;8.00;99.90;;;;;;5115318;28;20031;-70
2024/01/05 10:29:32;;;;;;;6.78;4.68;;;8.00;99.90;;;;;;5114352;28;20539;-70
2024/01/05 10:32:11;;;;;;;9.55;5.10;;;8.10;99.90;;;;;;5115028;28;20504;-70
2024/01/05 10:34:37;;;;;;;6.82;4.30;;;8.10;99.90;;;;;;5113082;28;20035;-70
2024/01/05 10:37:04;;;;;;;7.13;3.90;;;8.10;99.90;;;;;;5110813;28;20644;-70
2024/01/05 10:39:30;;;;;;;5.93;3.90;;;8.10;99.90;;;;;;5113253;28;20473;-70
2024/01/05 10:42:19;;;;;;;6.95;3.90;;;8.00;99.90;;;;;;5114412;28;20034;-71
2024/01/05 10:44:45;;;;;;;4.53;2.58;;;8.10;99.90;;;;;;5101538;28;20106;-70
2024/01/05 10:47:14;;;;;;;1.92;1.88;;;8.10;99.90;;;;;;5094137;28;20036;-70
2024/01/05 10:49:50;;;;;;;2.20;2.10;;;8.10;99.90;;;;;;5092613;28;20028;-71
2024/01/05 10:52:20;;;;;;;2.10;2.00;;;8.10;99.90;;;;;;5094370;28;20036;-70
2024/01/05 10:54:47;;;;;;;1.90;1.90;;;8.10;99.90;;;;;;5094322;28;20119;-70
2024/01/05 10:57:14;;;;;;;1.45;1.45;;;8.10;99.90;;;;;;5094245;28;20024;-70
2024/01/05 10:59:46;;;;;;;1.95;1.85;;;8.20;99.90;;;;;;5094335;28;20507;-70
2024/01/05 11:02:38;;;;;;;2.00;1.90;;;8.20;99.90;;;;;;5103344;28;20525;-70
2024/01/05 11:05:12;;;;;;;1.70;1.70;;;8.20;99.90;;;;;;5112826;28;20450;-70
2024/01/05 11:07:40;;;;;;;1.80;1.80;;;8.20;99.90;;;;;;5113090;28;20035;-70
2024/01/05 11:10:35;;;;;;;1.77;1.67;;;8.20;99.90;;;;;;5114544;28;20107;-70
2024/01/05 11:13:07;;;;;;;1.80;1.80;;;8.30;99.90;;;;;;5114376;28;20048;-70
2024/01/05 11:16:02;;;;;;;1.85;1.75;;;8.30;99.90;;;;;;5114290;28;20138;-70
2024/01/05 11:18:43;;;;;;;2.40;2.30;;;8.30;99.90;;;;;;5113852;28;20036;-69
2024/01/05 11:21:11;;;;;;;2.13;2.03;;;8.30;99.90;;;;;;5112810;28;20030;-70
2024/01/05 11:23:39;;;;;;;1.92;1.83;;;8.20;99.90;;;;;;5111623;28;20035;-69
2024/01/05 11:26:04;;;;;;;2.25;1.92;;;8.30;99.90;;;;;;5111863;28;20019;-69
2024/01/05 11:28:38;;;;;;;2.42;2.22;;;8.30;99.90;;;;;;5113547;28;20042;-70
2024/01/05 11:31:04;;;;;;;2.17;2.13;;;8.30;99.90;;;;;;5113908;28;20557;-70
2024/01/05 11:33:49;;;;;;;2.22;2.17;;;8.30;99.90;;;;;;5113674;28;20080;-69
2024/01/05 11:36:49;;;;;;;2.30;2.20;;;8.30;99.90;;;;;;5113861;28;20027;-70
2024/01/05 11:39:53;;;;;;;3.08;2.83;;;8.30;99.90;;;;;;5113310;28;20031;-69
2024/01/05 11:42:25;;;;;;;1.92;1.83;;;8.30;99.90;;;;;;5108615;28;20024;-70
2024/01/05 11:44:56;;;;;;;3.42;2.40;;;8.30;99.90;;;;;;5089033;28;20384;-70
2024/01/05 11:47:46;;;;;;;1.92;1.83;;;8.30;99.90;;;;;;5094436;28;20122;-69
2024/01/05 11:50:33;;;;;;;3.08;2.88;;;8.30;99.90;;;;;;5107979;28;20039;-71
2024/01/05 11:53:12;;;;;;;2.55;2.45;;;8.30;99.90;;;;;;5112604;28;20047;-70
2024/01/05 11:55:44;;;;;;;2.17;2.08;;;8.30;99.90;;;;;;5113035;28;20028;-70
2024/01/05 11:58:15;;;;;;;2.25;2.13;;;8.30;99.90;;;;;;5111740;28;20097;-69
2024/01/05 12:00:42;;;;;;;3.13;2.70;;;8.40;99.90;;;;;;5111966;28;20576;-70
2024/01/05 12:03:08;;;;;;;2.22;2.13;;;8.40;99.90;;;;;;5112529;28;20023;-70
2024/01/05 12:05:34;;;;;;;2.47;2.38;;;8.40;99.90;;;;;;5102082;28;20116;-70
2024/01/05 12:08:00;;;;;;;2.40;2.30;;;8.40;99.90;;;;;;5098670;28;20427;-70
2024/01/05 12:10:27;;;;;;;2.17;2.08;;;8.40;99.90;;;;;;5112945;28;20023;-70
2024/01/05 12:12:53;;;;;;;1.80;1.80;;;8.50;99.90;;;;;;5105089;28;20524;-70
2024/01/05 12:15:20;;;;;;;1.85;1.80;;;8.50;99.90;;;;;;5112624;28;20019;-70
2024/01/05 12:17:49;;;;;;;1.95;1.80;;;8.40;99.90;;;;;;5109601;28;20134;-70
2024/01/05 12:20:17;;;;;;;2.00;1.95;;;8.40;99.90;;;;;;5112829;28;20023;-70
2024/01/05 12:22:43;;;;;;;2.90;2.80;;;8.40;99.90;;;;;;5110742;28;20146;-70
2024/01/05 12:25:09;;;;;;;1.83;1.80;;;8.40;99.90;;;;;;5107074;28;20527;-70
2024/01/05 12:27:40;;;;;;;2.15;2.00;;;8.30;99.90;;;;;;5111884;28;20020;-70
2024/01/05 12:30:12;;;;;;;1.60;1.60;;;8.30;99.90;;;;;;5113205;28;20051;-70
2024/01/05 12:32:38;;;;;;;2.40;2.30;;;8.20;99.90;;;;;;5112384;28;20050;-69
2024/01/05 12:35:05;;;;;;;2.20;2.10;;;8.20;99.90;;;;;;5112103;28;20031;-70
2024/01/05 12:37:32;;;;;;;1.98;1.88;;;8.20;99.90;;;;;;5112902;28;20074;-69
2024/01/05 12:40:23;;;;;;;3.30;3.10;;;8.20;99.90;;;;;;5107626;28;20024;-69
2024/01/05 12:42:49;;;;;;;2.08;1.98;;;8.30;99.90;;;;;;5092447;28;20024;-70
2024/01/05 12:45:16;;;;;;;1.80;1.70;;;8.30;99.90;;;;;;5096125;28;20024;-69
2024/01/05 12:47:41;;;;;;;2.38;2.17;;;8.30;99.90;;;;;;5112757;28;20030;-69
2024/01/05 12:50:26;;;;;;;2.05;2.00;;;8.40;99.90;;;;;;5102747;28;20028;-69
2024/01/05 12:52:51;;;;;;;2.30;2.22;;;8.40;99.90;;;;;;5093099;28;20044;-69
2024/01/05 12:55:33;;;;;;;2.35;2.25;;;8.40;99.90;;;;;;5092205;28;20433;-69